Time;durP1;ratioP1;P1;durP2;ratioP2;P2;SDS_P1;SDS_P2;PMS_P1;PMS_P2;Temp;Humidity;BMP_temperature;BMP_pressure;BME280_temperature;BME280_humidity;BME280_pressure;Samples;Min_cycle;Max_cycle;Signal;HPM_P1;HPM_P2
2022/01/03 00:00:08;;;;;;;0.75;0.22;;;;;;;9.18;55.26;100179.75;4992826;28;20117;-76
2022/01/03 00:02:38;;;;;;;0.93;0.50;;;;;;;9.16;56.44;100191.75;4992221;28;20076;-76
2022/01/03 00:05:07;;;;;;;0.98;0.57;;;;;;;9.05;56.95;100177.69;4993564;28;20057;-79
2022/01/03 00:07:38;;;;;;;0.88;0.30;;;;;;;9.06;59.15;100151.94;4995672;28;20089;-75
2022/01/03 00:10:10;;;;;;;0.40;0.25;;;;;;;8.98;59.73;100141.41;4995773;28;20152;-78
2022/01/03 00:12:39;;;;;;;1.17;0.30;;;;;;;8.95;59.22;100151.63;4994052;28;20153;-77
2022/01/03 00:15:10;;;;;;;4.30;0.50;;;;;;;8.91;60.53;100152.41;4993049;28;20137;-77
2022/01/03 00:17:39;;;;;;;0.63;0.32;;;;;;;8.78;61.10;100152.91;4993238;28;20519;-76
2022/01/03 00:20:09;;;;;;;0.40;0.30;;;;;;;8.73;62.37;100146.75;4992680;28;20480;-76
2022/01/03 00:22:45;;;;;;;0.30;0.17;;;;;;;8.69;62.54;100129.44;4991685;28;20121;-76
2022/01/03 00:25:18;;;;;;;0.47;0.10;;;;;;;8.68;62.90;100125.09;4992288;28;20073;-76
2022/01/03 00:27:53;;;;;;;5.10;0.20;;;;;;;8.66;60.40;100117.34;4991158;28;20124;-78
2022/01/03 00:30:22;;;;;;;1.75;0.30;;;;;;;8.67;60.19;100101.03;4995868;28;20050;-78
2022/01/03 00:32:52;;;;;;;0.50;0.38;;;;;;;8.69;60.12;100088.19;4991693;28;20058;-77
2022/01/03 00:35:21;;;;;;;0.70;0.30;;;;;;;8.71;59.67;100086.53;4992607;28;20495;-82
2022/01/03 00:37:50;;;;;;;0.25;0.20;;;;;;;8.73;58.27;100071.97;4994354;28;20057;-83
2022/01/03 00:40:22;;;;;;;0.43;0.25;;;;;;;8.74;57.84;100079.72;4993895;28;20105;-81
2022/01/03 00:42:51;;;;;;;0.57;0.30;;;;;;;8.70;57.78;100061.53;4992146;28;20053;-84
2022/01/03 00:45:20;;;;;;;0.95;0.20;;;;;;;8.83;56.55;100079.09;4992839;28;20068;-84
2022/01/03 00:47:48;;;;;;;1.10;0.40;;;;;;;8.88;55.66;100062.00;4993381;28;20058;-81
2022/01/03 00:50:19;;;;;;;0.52;0.20;;;;;;;8.93;56.07;100039.81;4979050;28;20042;-83
2022/01/03 00:52:48;;;;;;;1.00;0.43;;;;;;;8.94;56.02;100031.22;4992302;28;20081;-81
2022/01/03 00:55:17;;;;;;;0.55;0.22;;;;;;;8.96;55.44;100028.69;4992640;28;20077;-78
2022/01/03 00:57:57;;;;;;;0.30;0.22;;;;;;;9.00;55.17;100012.41;4992905;28;20050;-84
2022/01/03 01:00:27;;;;;;;0.20;0.20;;;;;;;9.04;55.21;100041.75;4992454;28;20121;-80
2022/01/03 01:03:03;;;;;;;0.38;0.20;;;;;;;9.06;55.17;100011.69;4992856;28;20050;-77
2022/01/03 01:05:32;;;;;;;0.30;0.13;;;;;;;9.10;55.60;100022.13;4994268;28;20500;-86
2022/01/03 01:08:01;;;;;;;0.98;0.25;;;;;;;9.14;55.90;100026.53;4994533;28;20145;-76
2022/01/03 01:10:36;;;;;;;0.13;0.08;;;;;;;9.18;56.11;100009.41;4991457;28;20050;-77
2022/01/03 01:13:09;;;;;;;0.50;0.32;;;;;;;9.17;54.99;100003.38;4991327;28;20133;-76
2022/01/03 01:15:37;;;;;;;0.38;0.25;;;;;;;9.20;54.42;99989.66;4991129;28;20050;-77
2022/01/03 01:18:06;;;;;;;0.10;0.10;;;;;;;9.23;55.27;99992.31;4991585;28;20054;-78
2022/01/03 01:20:37;;;;;;;0.63;0.38;;;;;;;9.21;54.38;99974.22;4991482;28;20523;-79
2022/01/03 01:23:06;;;;;;;1.75;0.47;;;;;;;9.25;55.22;99980.31;4991710;28;20165;-76
2022/01/03 01:28:21;;;;;;;0.32;0.20;;;;;;;9.31;54.02;99949.47;4995896;28;20060;-81
2022/01/03 01:30:55;;;;;;;1.27;0.47;;;;;;;9.34;53.29;99946.06;4996703;28;20054;-80
2022/01/03 01:33:28;;;;;;;0.10;0.05;;;;;;;9.28;53.13;99923.59;4996584;28;20106;-78
2022/01/03 01:36:00;;;;;;;0.93;0.22;;;;;;;9.40;52.89;99936.75;4995451;28;20050;-77
2022/01/03 01:38:31;;;;;;;;;;;;;;;9.37;52.74;99936.69;4994305;28;20054;-80
2022/01/03 01:41:02;;;;;;;0.65;0.20;;;;;;;9.39;53.64;99922.13;4994280;28;20363;-77
2022/01/03 01:43:37;;;;;;;0.30;0.20;;;;;;;9.44;53.13;99936.00;4992874;28;20053;-79
2022/01/03 01:46:09;;;;;;;0.45;0.40;;;;;;;9.53;52.86;99937.91;4992176;28;20484;-79
2022/01/03 01:48:39;;;;;;;0.70;0.30;;;;;;;9.52;52.90;99928.38;4991951;28;20428;-77
2022/01/03 01:51:08;;;;;;;0.13;0.10;;;;;;;9.55;53.00;99923.31;4993021;28;20050;-80
2022/01/03 01:53:42;;;;;;;0.55;0.20;;;;;;;9.58;51.95;99922.50;4994229;28;20047;-79
2022/01/03 01:56:17;;;;;;;0.30;0.20;;;;;;;9.59;52.05;99914.75;4994387;28;20404;-80
2022/01/03 01:59:10;;;;;;;1.40;0.20;;;;;;;9.64;52.42;99899.34;4992010;28;20380;-79
2022/01/03 02:01:48;;;;;;;0.77;0.40;;;;;;;9.61;53.20;99901.88;4991737;28;20057;-79
2022/01/03 02:04:34;;;;;;;0.45;0.20;;;;;;;9.66;53.40;99895.09;4979289;28;20046;-79
2022/01/03 02:07:19;;;;;;;0.40;0.20;;;;;;;9.66;53.84;99884.75;4995990;28;20098;-77
2022/01/03 02:10:01;;;;;;;1.35;0.30;;;;;;;9.66;54.38;99846.00;4995319;28;20105;-84
2022/01/03 02:12:31;;;;;;;2.30;0.20;;;;;;;9.66;53.89;99851.19;4981585;28;20047;-80
2022/01/03 02:15:02;;;;;;;1.67;0.30;;;;;;;9.69;54.71;99835.75;4995579;28;20214;-81
2022/01/03 02:17:30;;;;;;;0.30;0.25;;;;;;;9.68;53.40;99834.00;4996029;28;20051;-79
2022/01/03 02:20:09;;;;;;;0.47;0.20;;;;;;;9.68;53.77;99839.16;4994400;28;20680;-78
2022/01/03 02:22:40;;;;;;;0.60;0.20;;;;;;;9.73;54.80;99832.34;4995154;28;20078;-79
2022/01/03 02:25:11;;;;;;;0.28;0.20;;;;;;;9.71;55.31;99823.75;4996204;28;20093;-80
2022/01/03 02:27:41;;;;;;;0.47;0.10;;;;;;;9.70;55.48;99821.97;4998920;28;20054;-78
2022/01/03 02:30:12;;;;;;;0.35;0.20;;;;;;;9.70;57.26;99809.06;4996317;28;20046;-84
2022/01/03 02:32:41;;;;;;;0.57;0.20;;;;;;;9.68;56.76;99804.72;4994870;28;20046;-79
2022/01/03 02:35:12;;;;;;;1.08;0.32;;;;;;;9.67;57.36;99803.84;4994874;28;20053;-79
2022/01/03 02:37:41;;;;;;;0.17;0.10;;;;;;;9.68;56.80;99802.13;4994323;28;20046;-77
2022/01/03 02:40:11;;;;;;;0.75;0.20;;;;;;;9.69;57.24;99785.78;4994761;28;20072;-83
2022/01/03 02:42:41;;;;;;;1.02;0.30;;;;;;;9.69;55.73;99797.00;4994695;28;20129;-79
2022/01/03 02:45:13;;;;;;;0.10;0.05;;;;;;;9.71;55.62;99795.31;4995495;28;20508;-82
2022/01/03 02:47:42;;;;;;;0.30;0.23;;;;;;;9.75;56.16;99806.56;4994532;28;20108;-80
2022/01/03 02:50:13;;;;;;;0.20;0.20;;;;;;;9.76;57.71;99804.00;4994463;28;20291;-81
2022/01/03 02:52:42;;;;;;;0.10;0.10;;;;;;;9.68;62.11;99810.75;4994997;28;20535;-82
2022/01/03 02:55:12;;;;;;;0.32;0.10;;;;;;;9.55;64.94;99786.44;4996258;28;20050;-83
2022/01/03 02:57:42;;;;;;;0.85;0.30;;;;;;;9.42;65.89;99782.75;4997692;28;20057;-86
2022/01/03 03:00:14;;;;;;;0.85;0.30;;;;;;;9.34;65.51;99783.44;4997619;28;20046;-82
2022/01/03 03:02:43;;;;;;;1.00;0.32;;;;;;;9.32;67.78;99798.91;4996617;28;20046;-83
2022/01/03 03:05:16;;;;;;;0.95;0.20;;;;;;;9.27;67.45;99803.09;4998197;28;20061;-85
2022/01/03 03:07:54;;;;;;;;;;;;;;;9.23;68.41;99809.03;4997665;28;20125;-83
2022/01/03 03:10:24;;;;;;;0.40;0.30;;;;;;;9.19;68.72;99810.69;4997247;28;19921;-84
2022/01/03 03:12:53;;;;;;;0.40;0.30;;;;;;;9.16;69.35;99800.31;4997417;28;20117;-85
2022/01/03 03:15:24;;;;;;;0.10;0.10;;;;;;;9.06;67.47;99797.53;4996075;28;20058;-82
2022/01/03 03:17:53;;;;;;;0.60;0.40;;;;;;;9.05;67.94;99791.50;4997863;28;20125;-82
2022/01/03 03:20:25;;;;;;;0.28;0.10;;;;;;;9.09;68.94;99793.28;5000183;28;20051;-81
2022/01/03 03:22:55;;;;;;;0.68;0.38;;;;;;;9.08;69.03;99801.00;4997432;28;20149;-81
2022/01/03 03:25:25;;;;;;;0.45;0.20;;;;;;;9.06;68.87;99774.28;5002266;28;20630;-82
2022/01/03 03:27:56;;;;;;;0.90;0.20;;;;;;;9.08;70.90;99757.13;4995321;28;20061;-86
2022/01/03 03:30:29;;;;;;;2.40;0.35;;;;;;;9.06;70.90;99751.06;4995086;28;20116;-83
2022/01/03 03:33:06;;;;;;;0.10;0.10;;;;;;;9.06;70.63;99730.44;4995425;28;20100;-84
2022/01/03 03:35:36;;;;;;;0.45;0.20;;;;;;;9.04;68.86;99742.44;4995843;28;20047;-82
2022/01/03 03:38:05;;;;;;;0.20;0.17;;;;;;;9.07;68.40;99727.00;4995701;28;20085;-82
2022/01/03 03:40:34;;;;;;;0.57;0.20;;;;;;;9.10;68.14;99721.91;4994641;28;20077;-85
2022/01/03 03:43:02;;;;;;;0.38;0.15;;;;;;;9.12;69.66;99709.91;4993731;28;20562;-83
2022/01/03 03:45:32;;;;;;;0.40;0.20;;;;;;;9.16;68.69;99719.44;4994211;28;20137;-81
2022/01/03 03:48:00;;;;;;;2.47;0.22;;;;;;;9.14;67.94;99703.94;4993887;28;20416;-79
2022/01/03 03:50:29;;;;;;;0.20;0.17;;;;;;;9.15;67.71;99699.63;4993448;28;20475;-82
2022/01/03 03:52:59;;;;;;;0.40;0.20;;;;;;;9.19;67.77;99709.19;4994045;28;20447;-82
2022/01/03 03:55:27;;;;;;;0.65;0.20;;;;;;;9.24;67.25;99717.88;4993630;28;20050;-80
2022/01/03 03:57:56;;;;;;;0.55;0.30;;;;;;;9.25;65.56;99701.53;4993990;28;20050;-82
2022/01/03 04:00:25;;;;;;;0.43;0.20;;;;;;;9.30;65.44;99707.66;4993899;28;20046;-80
2022/01/03 04:02:54;;;;;;;0.10;0.03;;;;;;;9.28;65.78;99680.06;4993551;28;20054;-79
2022/01/03 04:05:22;;;;;;;0.43;0.20;;;;;;;9.30;66.83;99674.09;4994338;28;20137;-84
2022/01/03 04:07:59;;;;;;;0.40;0.15;;;;;;;9.33;68.16;99668.97;4996587;28;20077;-84
2022/01/03 04:10:27;;;;;;;0.40;0.30;;;;;;;9.30;67.98;99668.94;4994390;28;20437;-86
2022/01/03 04:12:56;;;;;;;0.20;0.10;;;;;;;9.28;69.16;99678.38;4992977;28;20447;-85
2022/01/03 04:15:24;;;;;;;0.20;0.17;;;;;;;9.27;70.49;99666.28;4993802;28;20057;-79
2022/01/03 04:17:53;;;;;;;0.90;0.20;;;;;;;9.19;69.66;99653.25;4993103;28;20499;-83
2022/01/03 04:20:21;;;;;;;0.40;0.30;;;;;;;9.15;69.50;99659.19;4994116;28;20073;-80
2022/01/03 04:22:50;;;;;;;0.30;0.20;;;;;;;9.15;70.79;99660.94;4996596;28;20591;-83
2022/01/03 04:25:20;;;;;;;0.50;0.40;;;;;;;9.14;69.88;99635.94;4994590;28;20104;-81
2022/01/03 04:27:49;;;;;;;0.60;0.28;;;;;;;9.08;69.66;99633.28;4993540;28;20144;-82
2022/01/03 04:30:18;;;;;;;0.40;0.30;;;;;;;9.09;67.79;99635.00;4992625;28;20129;-80
2022/01/03 04:32:47;;;;;;;0.20;0.10;;;;;;;9.10;68.06;99639.34;4992145;28;20053;-82
2022/01/03 04:35:16;;;;;;;2.15;0.30;;;;;;;9.08;66.60;99621.22;4993169;28;20046;-85
2022/01/03 04:37:44;;;;;;;0.20;0.10;;;;;;;9.08;67.81;99620.38;4993176;28;20054;-79
2022/01/03 04:40:14;;;;;;;0.95;0.28;;;;;;;9.16;66.84;99606.75;4993006;28;20101;-84
2022/01/03 04:42:44;;;;;;;0.38;0.17;;;;;;;9.16;67.00;99592.97;4991875;28;20105;-82
2022/01/03 04:45:12;;;;;;;1.25;0.50;;;;;;;9.16;67.65;99606.75;4980920;28;20133;-83
2022/01/03 04:47:41;;;;;;;0.68;0.30;;;;;;;9.13;68.04;99600.66;4993643;28;20473;-83
2022/01/03 04:50:10;;;;;;;1.70;0.40;;;;;;;9.11;68.08;99603.22;4993320;28;20077;-82
2022/01/03 04:52:38;;;;;;;0.60;0.30;;;;;;;9.12;67.91;99602.38;4992922;28;20097;-82
2022/01/03 04:55:07;;;;;;;0.25;0.20;;;;;;;9.09;67.81;99602.31;4993843;28;20538;-85
2022/01/03 04:57:36;;;;;;;0.22;0.20;;;;;;;9.11;68.46;99592.03;4993621;28;20550;-83
2022/01/03 05:00:08;;;;;;;0.45;0.20;;;;;;;9.07;67.46;99587.66;4992983;28;20082;-83
2022/01/03 05:02:37;;;;;;;0.55;0.20;;;;;;;9.12;69.24;99562.81;4993395;28;20081;-85
2022/01/03 05:05:06;;;;;;;0.35;0.30;;;;;;;9.14;68.65;99571.44;4993197;28;20130;-85
2022/01/03 05:07:34;;;;;;;0.40;0.20;;;;;;;9.17;67.46;99584.41;4995258;28;20120;-87
2022/01/03 05:10:03;;;;;;;0.00;0.00;;;;;;;9.18;67.28;99547.41;4993836;28;20496;-84
2022/01/03 05:12:32;;;;;;;0.35;0.28;;;;;;;9.18;66.88;99550.84;4993479;28;20543;-86
2022/01/03 05:15:00;;;;;;;0.40;0.20;;;;;;;9.25;66.91;99531.16;4994363;28;20086;-82
2022/01/03 05:17:31;;;;;;;0.20;0.10;;;;;;;9.24;65.01;99526.88;4995022;28;20081;-83
2022/01/03 05:20:00;;;;;;;0.25;0.10;;;;;;;9.26;66.16;99532.91;4997647;28;20054;-86
2022/01/03 05:22:28;;;;;;;0.50;0.20;;;;;;;9.28;65.44;99522.59;4995445;28;20480;-86
2022/01/03 05:24:57;;;;;;;0.28;0.20;;;;;;;9.30;64.63;99515.75;4994701;28;20302;-85
2022/01/03 05:27:25;;;;;;;0.30;0.13;;;;;;;9.33;65.38;99518.41;4994128;28;20050;-81
2022/01/03 05:29:54;;;;;;;0.45;0.20;;;;;;;9.33;63.50;99498.59;4996085;28;20078;-84
2022/01/03 05:32:22;;;;;;;0.30;0.20;;;;;;;9.39;64.36;99492.66;4994130;28;20411;-85
2022/01/03 05:34:53;;;;;;;0.40;0.22;;;;;;;9.41;65.43;99478.94;4994030;28;20560;-82
2022/01/03 05:37:21;;;;;;;0.10;0.10;;;;;;;9.39;65.65;99467.72;4993145;28;20085;-84
2022/01/03 05:39:50;;;;;;;0.20;0.20;;;;;;;9.43;64.71;99478.94;4993289;28;20563;-80
2022/01/03 05:42:19;;;;;;;0.20;0.20;;;;;;;9.43;63.63;99484.97;4998330;28;20570;-84
2022/01/03 05:44:47;;;;;;;0.65;0.20;;;;;;;9.47;64.27;99462.66;4999133;28;20411;-82
2022/01/03 05:47:16;;;;;;;0.15;0.15;;;;;;;9.48;62.73;99476.41;4998096;28;20055;-84
2022/01/03 05:49:44;;;;;;;0.30;0.20;;;;;;;9.47;63.33;99452.31;5000164;28;20081;-85
2022/01/03 05:52:14;;;;;;;0.20;0.10;;;;;;;9.54;64.42;99479.09;4999921;28;20050;-85
2022/01/03 05:54:43;;;;;;;0.10;0.08;;;;;;;9.53;62.84;99474.75;5003790;28;20046;-82
2022/01/03 05:57:11;;;;;;;1.10;0.22;;;;;;;9.55;62.52;99467.91;4999751;28;20058;-84
2022/01/03 05:59:40;;;;;;;0.15;0.13;;;;;;;9.61;63.32;99473.16;4996499;28;20138;-77
2022/01/03 06:02:08;;;;;;;0.40;0.20;;;;;;;9.59;63.20;99480.00;5000558;28;20104;-81
2022/01/03 06:04:42;;;;;;;0.40;0.20;;;;;;;9.57;63.41;99448.13;4999685;28;20480;-83
2022/01/03 06:07:11;;;;;;;0.13;0.13;;;;;;;9.54;64.77;99468.78;4986411;28;20116;-80
2022/01/03 06:09:41;;;;;;;0.50;0.10;;;;;;;9.54;66.84;99499.75;4997102;28;20129;-83
2022/01/03 06:12:10;;;;;;;0.50;0.25;;;;;;;9.38;69.21;99476.31;4995383;28;20109;-77
2022/01/03 06:14:39;;;;;;;0.20;0.20;;;;;;;9.31;70.25;99478.78;4995582;28;20050;-82
2022/01/03 06:17:07;;;;;;;0.30;0.20;;;;;;;9.27;71.59;99467.53;4997186;28;20109;-75
2022/01/03 06:19:37;;;;;;;0.60;0.17;;;;;;;9.26;73.21;99449.47;4997489;28;20511;-77
2022/01/03 06:22:07;;;;;;;0.52;0.30;;;;;;;9.17;72.58;99414.06;4995182;28;20089;-75
2022/01/03 06:24:36;;;;;;;0.38;0.30;;;;;;;9.13;72.88;99425.19;4995249;28;20518;-76
2022/01/03 06:27:07;;;;;;;0.40;0.20;;;;;;;9.13;73.84;99443.25;4994769;28;20086;-77
2022/01/03 06:29:35;;;;;;;0.10;0.10;;;;;;;9.08;74.16;99403.63;4994824;28;20054;-76
2022/01/03 06:32:04;;;;;;;0.47;0.20;;;;;;;9.14;74.06;99408.84;4994914;28;20101;-74
2022/01/03 06:34:32;;;;;;;0.50;0.20;;;;;;;9.08;74.00;99422.53;4994788;28;20059;-76
2022/01/03 06:37:01;;;;;;;0.98;0.40;;;;;;;9.12;73.08;99400.25;4994481;28;20519;-74
2022/01/03 06:39:29;;;;;;;0.20;0.10;;;;;;;9.12;74.05;99402.81;4994385;28;20058;-75
2022/01/03 06:41:58;;;;;;;0.03;0.00;;;;;;;9.09;74.16;99425.97;4994778;28;20123;-75
2022/01/03 06:44:28;;;;;;;0.20;0.20;;;;;;;9.08;74.07;99460.38;4994399;28;20512;-76
2022/01/03 06:46:56;;;;;;;0.17;0.17;;;;;;;9.12;74.19;99433.78;4994273;28;20085;-76
2022/01/03 06:49:25;;;;;;;0.90;0.20;;;;;;;9.13;74.23;99417.44;4994491;28;20086;-75
2022/01/03 06:51:53;;;;;;;0.30;0.20;;;;;;;9.12;75.02;99406.25;4993081;28;20046;-76
2022/01/03 06:54:22;;;;;;;0.95;0.10;;;;;;;9.08;76.77;99398.47;4994153;28;20702;-74
2022/01/03 06:56:50;;;;;;;1.02;0.20;;;;;;;9.05;79.08;99421.63;4994155;28;20105;-77
2022/01/03 06:59:19;;;;;;;0.43;0.17;;;;;;;8.93;80.10;99419.75;4994963;28;20125;-76
2022/01/03 07:01:49;;;;;;;0.10;0.10;;;;;;;8.96;82.58;99428.41;4994261;28;20046;-77
2022/01/03 07:04:18;;;;;;;0.00;0.00;;;;;;;8.83;82.90;99438.50;4995274;28;20049;-76
2022/01/03 07:06:46;;;;;;;0.40;0.30;;;;;;;8.81;86.84;99436.75;4995716;28;20062;-77
2022/01/03 07:09:15;;;;;;;0.35;0.22;;;;;;;8.78;90.07;99456.50;4993657;28;20105;-76
2022/01/03 07:11:43;;;;;;;0.25;0.22;;;;;;;8.69;96.02;99425.41;4993783;28;20046;-80
2022/01/03 07:19:49;;;;;;;0.20;0.15;;;;;;;8.53;100.00;99417.41;4983463;28;20053;-78
2022/01/03 07:22:17;;;;;;;0.52;0.28;;;;;;;8.42;100.00;99416.38;4993876;28;20120;-77
2022/01/03 07:24:46;;;;;;;0.10;0.10;;;;;;;8.41;100.00;99421.50;4994109;28;20117;-77
2022/01/03 07:27:15;;;;;;;0.77;0.13;;;;;;;8.36;100.00;99434.28;4993827;28;20488;-77
2022/01/03 07:29:44;;;;;;;1.33;0.30;;;;;;;8.29;100.00;99441.06;4993874;28;20558;-75
2022/01/03 07:32:14;;;;;;;0.30;0.22;;;;;;;8.26;100.00;99460.72;4993755;28;20121;-76
2022/01/03 07:34:42;;;;;;;0.10;0.10;;;;;;;8.24;100.00;99463.28;4993658;28;20070;-75
2022/01/03 07:37:12;;;;;;;0.60;0.20;;;;;;;8.23;100.00;99481.31;4993313;28;20051;-76
2022/01/03 07:39:40;;;;;;;1.33;0.35;;;;;;;8.21;100.00;99482.97;4993355;28;20133;-76
2022/01/03 07:42:09;;;;;;;0.52;0.22;;;;;;;8.21;100.00;99475.25;4993282;28;20503;-75
2022/01/03 07:44:38;;;;;;;0.30;0.10;;;;;;;8.15;100.00;99476.88;4993465;28;20053;-75
2022/01/03 07:47:07;;;;;;;0.35;0.20;;;;;;;8.12;100.00;99463.91;4993433;28;20054;-75
2022/01/03 07:49:37;;;;;;;0.28;0.20;;;;;;;8.11;100.00;99475.09;4993526;28;20054;-77
2022/01/03 07:52:06;;;;;;;2.17;0.30;;;;;;;8.02;100.00;99489.47;4980325;28;20078;-75
2022/01/03 07:54:35;;;;;;;0.55;0.17;;;;;;;8.03;100.00;99499.81;4993398;28;20046;-75
2022/01/03 07:57:03;;;;;;;1.17;0.40;;;;;;;8.03;100.00;99515.28;4993248;28;20054;-75
2022/01/03 07:59:32;;;;;;;0.65;0.30;;;;;;;8.02;100.00;99531.59;4993210;28;20492;-75
2022/01/03 08:02:00;;;;;;;2.85;0.40;;;;;;;8.02;100.00;99549.63;4992360;28;20448;-74
2022/01/03 08:04:30;;;;;;;0.20;0.20;;;;;;;8.04;100.00;99549.63;4992583;28;20050;-73
2022/01/03 08:07:00;;;;;;;0.98;0.38;;;;;;;8.05;100.00;99570.28;4994374;28;20056;-74
2022/01/03 08:09:29;;;;;;;1.15;0.05;;;;;;;8.00;100.00;99571.88;4992777;28;20298;-75
2022/01/03 08:11:57;;;;;;;0.08;0.03;;;;;;;7.94;100.00;99552.00;4992118;28;20046;-75
2022/01/03 08:14:26;;;;;;;0.10;0.10;;;;;;;7.73;100.00;99542.13;4980459;28;20054;-74
2022/01/03 08:16:54;;;;;;;0.30;0.13;;;;;;;7.70;100.00;99552.38;4995254;28;20054;-75
2022/01/03 08:19:22;;;;;;;0.55;0.00;;;;;;;7.63;100.00;99529.03;4993051;28;20050;-74
2022/01/03 08:21:51;;;;;;;0.00;0.00;;;;;;;7.57;100.00;99534.91;4992662;28;20133;-74
2022/01/03 08:24:21;;;;;;;0.60;0.20;;;;;;;7.51;100.00;99524.47;4992656;28;20419;-74
2022/01/03 08:26:50;;;;;;;0.45;0.00;;;;;;;7.46;100.00;99531.25;4993146;28;20571;-74
2022/01/03 08:29:19;;;;;;;0.00;0.00;;;;;;;7.40;100.00;99525.94;4992299;28;20057;-76
2022/01/03 08:31:47;;;;;;;0.10;0.08;;;;;;;7.38;100.00;99530.22;4993579;28;20089;-74
2022/01/03 08:34:16;;;;;;;0.20;0.20;;;;;;;7.35;100.00;99528.41;4992438;28;20082;-74
2022/01/03 08:36:44;;;;;;;0.00;0.00;;;;;;;7.30;100.00;99502.56;4992130;28;20058;-75
2022/01/03 08:39:13;;;;;;;0.00;0.00;;;;;;;7.28;100.00;99505.94;4992560;28;20140;-74
2022/01/03 08:41:43;;;;;;;0.00;0.00;;;;;;;7.26;100.00;99517.91;4992542;28;20480;-74
2022/01/03 08:44:12;;;;;;;1.85;0.10;;;;;;;7.25;100.00;99519.63;4992530;28;20511;-74
2022/01/03 08:46:40;;;;;;;0.10;0.00;;;;;;;7.21;100.00;99498.94;4992122;28;20054;-73
2022/01/03 08:49:09;;;;;;;0.10;0.00;;;;;;;7.20;100.00;99486.91;4993095;28;20053;-73
2022/01/03 08:51:37;;;;;;;0.00;0.00;;;;;;;7.19;100.00;99464.59;4994257;28;20109;-74
2022/01/03 08:54:06;;;;;;;0.20;0.00;;;;;;;7.20;100.00;99468.91;4992116;28;20093;-73
2022/01/03 08:56:34;;;;;;;0.00;0.00;;;;;;;7.17;100.00;99482.59;4992816;28;20081;-75
2022/01/03 08:59:04;;;;;;;0.30;0.03;;;;;;;7.19;100.00;99470.59;4992714;28;20527;-73
2022/01/03 09:01:33;;;;;;;0.00;0.00;;;;;;;7.19;100.00;99460.31;4992490;28;20081;-72
2022/01/03 09:04:01;;;;;;;0.00;0.00;;;;;;;7.19;100.00;99478.31;4992227;28;20081;-74
2022/01/03 09:06:30;;;;;;;1.00;0.10;;;;;;;7.16;100.00;99455.09;4992371;28;20054;-73
2022/01/03 09:08:59;;;;;;;1.40;0.20;;;;;;;7.17;100.00;99459.44;4991225;28;20519;-74
2022/01/03 09:11:28;;;;;;;0.00;0.00;;;;;;;7.16;100.00;99444.81;4992232;28;20074;-75
2022/01/03 09:13:56;;;;;;;0.57;0.10;;;;;;;7.12;100.00;99441.31;4993713;28;20051;-73
2022/01/03 09:16:27;;;;;;;0.10;0.00;;;;;;;7.07;100.00;99452.31;4992778;28;20046;-75
2022/01/03 09:18:55;;;;;;;1.73;0.13;;;;;;;7.05;100.00;99441.13;4992339;28;20046;-74
2022/01/03 09:21:24;;;;;;;0.03;0.00;;;;;;;6.98;100.00;99442.69;4992159;28;20046;-74
2022/01/03 09:24:05;;;;;;;1.05;0.15;;;;;;;6.93;100.00;99445.16;4991559;28;20050;-74
2022/01/03 09:29:19;;;;;;;0.17;0.10;;;;;;;6.90;100.00;99403.09;4992153;28;20114;-73
2022/01/03 09:31:49;;;;;;;2.45;0.20;;;;;;;6.90;100.00;99388.53;4992028;28;20085;-74
2022/01/03 09:34:17;;;;;;;0.00;0.00;;;;;;;6.84;100.00;99397.81;4991809;28;20050;-73
2022/01/03 09:36:46;;;;;;;0.47;0.03;;;;;;;6.81;100.00;99364.31;4991167;28;20089;-74
2022/01/03 09:39:15;;;;;;;0.10;0.05;;;;;;;6.81;100.00;99334.34;4991732;28;20535;-74
2022/01/03 09:41:49;;;;;;;0.00;0.00;;;;;;;6.80;100.00;99337.72;4991425;28;20050;-73
2022/01/03 09:44:18;;;;;;;0.77;0.10;;;;;;;6.78;100.00;99354.84;4991561;28;20058;-74
2022/01/03 09:46:50;;;;;;;0.00;0.00;;;;;;;6.77;100.00;99317.09;4991776;28;20089;-74
2022/01/03 09:49:19;;;;;;;0.10;0.10;;;;;;;6.78;100.00;99315.38;4991588;28;20557;-73
2022/01/03 09:51:49;;;;;;;0.13;0.00;;;;;;;6.79;100.00;99328.28;4991613;28;20503;-73
2022/01/03 09:54:20;;;;;;;0.00;0.00;;;;;;;6.81;100.00;99333.47;4991261;28;20089;-73
2022/01/03 09:56:51;;;;;;;0.10;0.00;;;;;;;6.81;100.00;99325.75;4991353;28;20066;-74
2022/01/03 09:59:20;;;;;;;0.15;0.00;;;;;;;6.85;100.00;99330.09;4991548;28;20479;-73
2022/01/03 10:01:52;;;;;;;0.05;0.00;;;;;;;6.90;100.00;99313.97;4991216;28;20050;-75
2022/01/03 10:04:21;;;;;;;0.45;0.10;;;;;;;6.94;100.00;99294.34;4991973;28;20050;-74
2022/01/03 10:06:50;;;;;;;0.03;0.03;;;;;;;6.97;100.00;99319.25;4992824;28;20109;-75
2022/01/03 10:09:20;;;;;;;0.95;0.20;;;;;;;7.00;100.00;99325.28;4991172;28;20058;-73
2022/01/03 10:11:49;;;;;;;1.20;0.20;;;;;;;7.05;100.00;99307.38;4991189;28;20254;-74
2022/01/03 10:14:17;;;;;;;0.38;0.20;;;;;;;7.08;100.00;99318.63;4995288;28;20488;-74
2022/01/03 10:16:49;;;;;;;0.40;0.20;;;;;;;7.12;100.00;99328.16;4984753;28;20050;-75
2022/01/03 10:19:19;;;;;;;0.38;0.32;;;;;;;7.14;100.00;99336.72;4991466;28;20109;-74
2022/01/03 10:21:49;;;;;;;0.75;0.25;;;;;;;7.16;100.00;99336.78;4991159;28;20113;-74
2022/01/03 10:24:19;;;;;;;0.90;0.10;;;;;;;7.19;100.00;99305.09;4991058;28;20134;-76
2022/01/03 10:26:54;;;;;;;0.22;0.10;;;;;;;7.22;100.00;99294.88;4991713;28;20057;-77
2022/01/03 10:29:31;;;;;;;2.17;0.10;;;;;;;7.24;100.00;99308.63;4994689;28;20051;-73
2022/01/03 10:32:09;;;;;;;1.35;0.17;;;;;;;7.21;100.00;99304.28;4994570;28;20054;-74
2022/01/03 10:34:40;;;;;;;0.30;0.20;;;;;;;7.20;100.00;99281.13;4994470;28;20054;-75
2022/01/03 10:37:15;;;;;;;0.77;0.22;;;;;;;7.25;100.00;99290.66;4995308;28;20171;-74
2022/01/03 10:39:43;;;;;;;0.00;0.00;;;;;;;7.29;100.00;99323.31;4994804;28;20058;-77
2022/01/03 10:42:17;;;;;;;0.50;0.30;;;;;;;7.27;100.00;99331.84;4992977;28;20104;-75
2022/01/03 10:44:46;;;;;;;0.80;0.32;;;;;;;7.29;100.00;99313.03;4990627;28;20078;-75
2022/01/03 10:47:30;;;;;;;3.67;0.10;;;;;;;7.32;100.00;99300.22;4996491;28;20527;-75
2022/01/03 10:50:00;;;;;;;0.20;0.20;;;;;;;7.34;100.00;99295.97;4994982;28;20058;-78
2022/01/03 10:52:29;;;;;;;0.10;0.10;;;;;;;7.36;100.00;99283.13;4994946;28;20166;-77
2022/01/03 10:55:16;;;;;;;0.32;0.17;;;;;;;7.34;100.00;99270.25;4994703;28;20046;-77
2022/01/03 10:57:52;;;;;;;0.47;0.30;;;;;;;7.32;100.00;99302.78;4994213;28;20046;-76
2022/01/03 11:00:23;;;;;;;0.10;0.10;;;;;;;7.37;100.00;99332.88;4994702;28;20054;-76
2022/01/03 11:03:26;;;;;;;0.30;0.20;;;;;;;7.43;100.00;99353.59;4994285;28;20050;-77
2022/01/03 11:06:02;;;;;;;0.32;0.20;;;;;;;7.46;100.00;99328.78;4982693;28;20050;-74
2022/01/03 11:11:33;;;;;;;0.15;0.10;;;;;;;7.54;100.00;99283.47;4995038;28;20092;-77
2022/01/03 11:14:02;;;;;;;1.00;0.10;;;;;;;7.55;100.00;99290.34;4997662;28;20078;-77
2022/01/03 11:16:34;;;;;;;0.52;0.22;;;;;;;7.56;100.00;99332.41;4994716;28;20054;-77
2022/01/03 11:19:02;;;;;;;0.03;0.00;;;;;;;7.55;100.00;99356.41;4993955;28;20455;-76
2022/01/03 11:21:33;;;;;;;0.00;0.00;;;;;;;7.50;100.00;99373.47;4994036;28;20089;-75
2022/01/03 11:24:09;;;;;;;0.70;0.20;;;;;;;7.53;100.00;99394.13;4993346;28;20105;-76
2022/01/03 11:26:40;;;;;;;0.00;0.00;;;;;;;7.34;100.00;99378.31;4994157;28;20046;-76
2022/01/03 11:29:10;;;;;;;0.00;0.00;;;;;;;7.35;100.00;99371.44;4993683;28;20050;-74
2022/01/03 11:31:40;;;;;;;0.00;0.00;;;;;;;7.19;100.00;99387.41;4994151;28;20492;-72
2022/01/03 11:34:10;;;;;;;0.00;0.00;;;;;;;7.22;100.00;99362.63;4993655;28;20054;-75
2022/01/03 11:36:42;;;;;;;0.00;0.00;;;;;;;7.20;100.00;99366.88;4993688;28;20054;-75
2022/01/03 11:39:13;;;;;;;0.17;0.08;;;;;;;7.22;100.00;99383.22;4993120;28;20085;-76
2022/01/03 11:41:45;;;;;;;0.20;0.03;;;;;;;7.24;100.00;99391.84;4993896;28;20046;-75
2022/01/03 11:44:15;;;;;;;1.10;0.55;;;;;;;7.22;100.00;99396.06;4993581;28;20559;-73
2022/01/03 11:46:45;;;;;;;0.00;0.00;;;;;;;7.23;100.00;99387.50;4980850;28;20082;-73
2022/01/03 11:49:13;;;;;;;0.00;0.00;;;;;;;7.25;100.00;99402.97;4993326;28;20133;-74
2022/01/03 11:51:44;;;;;;;0.15;0.10;;;;;;;7.21;100.00;99398.59;4993831;28;20540;-73
2022/01/03 11:54:14;;;;;;;0.00;0.00;;;;;;;7.18;100.00;99385.69;4992364;28;20047;-74
2022/01/03 11:56:47;;;;;;;0.08;0.00;;;;;;;7.19;100.00;99352.25;4993542;28;20100;-76
2022/01/03 12:03:36;;;;;;;;;;;;;;;7.10;100.00;99352.97;4993929;28;20058;-77
2022/01/03 12:05:11;;;;;;;0.00;0.00;;;;;;;6.98;100.00;99383.53;4992754;28;20058;-74
2022/01/03 12:10:55;;;;;;;0.00;0.00;;;;;;;6.92;100.00;99388.56;4782282;27;8905254;-74
2022/01/03 12:13:53;;;;;;;0.00;0.00;;;;;;;6.85;100.00;99378.97;5071786;28;20763;-75